Provisional Results for Enduro #Spurfest, 29 March 2019

Name RaceNo Gender Category School Start Time Time Finished Overall Time
1 Dirk Van Schalkwyk 578 M #SpurFest Crew 2019-03-29 12:44:45 2019-03-29 12:45:23 0:00:38

Attempts by Dirk

Attempt Rider Name Tag No Start time End time Time
1 Dirk Van Schalkwyk TD837 2019-03-29 12:44:45 2019-03-29 12:45:23 0:00:38
2 Oliver Munnik 573 M #SpurFest Crew 2019-03-29 12:39:47 2019-03-29 12:40:26 0:00:39

Attempts by Oliver

Attempt Rider Name Tag No Start time End time Time
2 Oliver Munnik TE428 2019-03-29 12:39:47 2019-03-29 12:40:26 0:00:39
1 Oliver Munnik TE428 2019-03-29 12:31:34 2019-03-29 12:32:14 0:00:40
3 PIETER-JAN PRETORIUS 37 M JM Afrikaans Hoer Seunsskool HS 2019-03-29 12:30:34 2019-03-29 12:31:14 0:00:40

Attempts by PIETER-JAN

Attempt Rider Name Tag No Start time End time Time
2 PIETER-JAN PRETORIUS TG484 2019-03-29 12:30:34 2019-03-29 12:31:14 0:00:40
1 PIETER-JAN PRETORIUS TG484 2019-03-29 10:58:29 2019-03-29 10:59:10 0:00:41
4 GERNO STRYDOM 42 M YM15 Afrikaans Hoer Seunsskool HS 2019-03-29 11:21:01 2019-03-29 11:21:43 0:00:42

Attempts by GERNO

Attempt Rider Name Tag No Start time End time Time
3 GERNO STRYDOM TE978 2019-03-29 11:21:01 2019-03-29 11:21:43 0:00:42
2 GERNO STRYDOM TE978 2019-03-29 10:57:41 2019-03-29 10:58:24 0:00:43
4 GERNO STRYDOM TE978 2019-03-29 11:26:07 2019-03-29 11:26:56 0:00:49
1 GERNO STRYDOM TE978 2019-03-29 09:41:57 2019-03-29 09:54:02 0:12:05
5 Aaron Pietersen 26 M YM15 Midstream College HS 2019-03-29 12:29:31 2019-03-29 12:30:14 0:00:43

Attempts by Aaron

Attempt Rider Name Tag No Start time End time Time
1 Aaron Pietersen TA526 2019-03-29 12:29:31 2019-03-29 12:30:14 0:00:43
5 Dewald Du Plessis 14 M YM15 Noordheuwel HS 2019-03-29 10:51:43 2019-03-29 10:52:26 0:00:43

Attempts by Dewald

Attempt Rider Name Tag No Start time End time Time
2 Dewald Du Plessis TB726 2019-03-29 10:51:43 2019-03-29 10:52:26 0:00:43
3 Dewald Du Plessis TB726 2019-03-29 11:12:24 2019-03-29 11:13:07 0:00:43
1 Dewald Du Plessis TB726 2019-03-29 10:43:56 2019-03-29 10:44:45 0:00:49
7 Meurant Botha 1000 M #SpurFest Crew 2019-03-29 11:26:01 2019-03-29 11:26:45 0:00:44

Attempts by Meurant

Attempt Rider Name Tag No Start time End time Time
1 Meurant Botha AM441 2019-03-29 11:26:01 2019-03-29 11:26:45 0:00:44
8 MARK OSLER 36 M YM16 Afrikaans Hoer Seunsskool HS 2019-03-29 10:59:08 2019-03-29 10:59:53 0:00:45

Attempts by MARK

Attempt Rider Name Tag No Start time End time Time
1 MARK OSLER TA559 2019-03-29 10:59:08 2019-03-29 10:59:53 0:00:45
8 ROELOF OELOFSE 49 M YM15 Goudveld HS 2019-03-29 11:04:32 2019-03-29 11:05:17 0:00:45

Attempts by ROELOF

Attempt Rider Name Tag No Start time End time Time
3 ROELOF OELOFSE TF317 2019-03-29 11:04:32 2019-03-29 11:05:17 0:00:45
1 ROELOF OELOFSE TF317 2019-03-29 10:43:54 2019-03-29 10:44:42 0:00:48
4 ROELOF OELOFSE TF317 2019-03-29 12:10:50 2019-03-29 12:11:38 0:00:48
2 ROELOF OELOFSE TF317 2019-03-29 10:51:00 2019-03-29 10:51:49 0:00:49
5 ROELOF OELOFSE TF317 2019-03-29 12:17:25 2019-03-29 12:18:21 0:00:56
8 Luhan Serfontein 25 M YM15 Grey College HS 2019-03-29 11:12:00 2019-03-29 11:12:45 0:00:45

Attempts by Luhan

Attempt Rider Name Tag No Start time End time Time
2 Luhan Serfontein TE508 2019-03-29 11:12:00 2019-03-29 11:12:45 0:00:45
1 Luhan Serfontein TE508 2019-03-29 10:43:51 2019-03-29 10:44:37 0:00:46
11 Armand Booysen 16 M YM15 Noordheuwel HS 2019-03-29 11:12:44 2019-03-29 11:13:30 0:00:46

Attempts by Armand

Attempt Rider Name Tag No Start time End time Time
1 Armand Booysen TG291 2019-03-29 11:12:44 2019-03-29 11:13:30 0:00:46
11 Kevin Daniel Scholtz 5 M JM John Vorster HTS 2019-03-29 12:12:08 2019-03-29 12:12:54 0:00:46

Attempts by Kevin Daniel

Attempt Rider Name Tag No Start time End time Time
3 Kevin Daniel Scholtz TG496 2019-03-29 12:12:08 2019-03-29 12:12:54 0:00:46
2 Kevin Daniel Scholtz TG496 2019-03-29 11:15:59 2019-03-29 11:16:47 0:00:48
1 Kevin Daniel Scholtz TG496 2019-03-29 11:02:05 2019-03-29 11:02:54 0:00:49
13 Kian kruger 1 M YM16 Overkruin HS 2019-03-29 11:16:23 2019-03-29 11:17:11 0:00:48

Attempts by Kian

Attempt Rider Name Tag No Start time End time Time
2 Kian kruger TF957 2019-03-29 11:16:23 2019-03-29 11:17:11 0:00:48
1 Kian kruger TF957 2019-03-29 11:03:13 2019-03-29 11:04:06 0:00:53
14 Edrich Scholtz 2 M JM John Vorster HTS 2019-03-29 11:17:24 2019-03-29 11:18:13 0:00:49

Attempts by Edrich

Attempt Rider Name Tag No Start time End time Time
2 Edrich Scholtz TC965 2019-03-29 11:17:24 2019-03-29 11:18:13 0:00:49
1 Edrich Scholtz TC965 2019-03-29 11:02:54 2019-03-29 11:03:48 0:00:54
15 KARL-HEINZ MIENKE 35 M YM16 Afrikaans Hoer Seunsskool HS 2019-03-29 11:00:03 2019-03-29 11:00:53 0:00:50

Attempts by KARL-HEINZ

Attempt Rider Name Tag No Start time End time Time
1 KARL-HEINZ MIENKE TE301 2019-03-29 11:00:03 2019-03-29 11:00:53 0:00:50
15 Tlotlo Selala 64 M JM Mamelodi HS 2019-03-29 12:29:02 2019-03-29 12:29:52 0:00:50

Attempts by Tlotlo

Attempt Rider Name Tag No Start time End time Time
1 Tlotlo Selala TF526 2019-03-29 12:29:02 2019-03-29 12:29:52 0:00:50
15 Werner Vos 11 M JM Wagpos HS 2019-03-29 11:10:22 2019-03-29 11:11:12 0:00:50

Attempts by Werner

Attempt Rider Name Tag No Start time End time Time
1 Werner Vos TG725 2019-03-29 11:10:22 2019-03-29 11:11:12 0:00:50
15 ALBERT VAN TONDER 43 M JM Afrikaans Hoer Seunsskool HS 2019-03-29 12:30:38 2019-03-29 12:31:28 0:00:50

Attempts by ALBERT

Attempt Rider Name Tag No Start time End time Time
1 ALBERT VAN TONDER TG160 2019-03-29 12:30:38 2019-03-29 12:31:28 0:00:50
15 Stefan Venter 29 M YM16 Helpmekaar Kollege HS 2019-03-29 12:01:30 2019-03-29 12:02:20 0:00:50

Attempts by Stefan

Attempt Rider Name Tag No Start time End time Time
1 Stefan Venter TG828 2019-03-29 12:01:30 2019-03-29 12:02:20 0:00:50
15 Reabetswe Makofane 66 M Mamelodi HS 2019-03-29 13:21:18 2019-03-29 13:22:08 0:00:50

Attempts by Reabetswe

Attempt Rider Name Tag No Start time End time Time
2 Reabetswe Makofane TB894 2019-03-29 13:21:18 2019-03-29 13:22:08 0:00:50
1 Reabetswe Makofane TB894 2019-03-29 12:35:30 2019-03-29 12:36:45 0:01:15
21 HENNO HARDING 33 M YM15 Afrikaans Hoer Seunsskool HS 2019-03-29 12:10:02 2019-03-29 12:10:53 0:00:51

Attempts by HENNO

Attempt Rider Name Tag No Start time End time Time
1 HENNO HARDING TD476 2019-03-29 12:10:02 2019-03-29 12:10:53 0:00:51
22 Dian Broodryk 7 M JM Helpmekaar Kollege HS 2019-03-29 12:02:02 2019-03-29 12:02:54 0:00:52

Attempts by Dian

Attempt Rider Name Tag No Start time End time Time
1 Dian Broodryk TF467 2019-03-29 12:02:02 2019-03-29 12:02:54 0:00:52
23 DEHAN SMITH 40 M JM Afrikaans Hoer Seunsskool HS 2019-03-29 12:10:11 2019-03-29 12:11:04 0:00:53

Attempts by DEHAN

Attempt Rider Name Tag No Start time End time Time
1 DEHAN SMITH TG078 2019-03-29 12:10:11 2019-03-29 12:11:04 0:00:53
2 DEHAN SMITH TG078 2019-03-29 12:30:36 2019-03-29 12:31:30 0:00:54
24 Pedri Crause 30 M YM16 Helpmekaar Kollege HS 2019-03-29 12:01:47 2019-03-29 12:02:41 0:00:54

Attempts by Pedri

Attempt Rider Name Tag No Start time End time Time
2 Pedri Crause TB096 2019-03-29 12:01:47 2019-03-29 12:02:41 0:00:54
1 Pedri Crause TB096 2019-03-29 10:05:43 2019-03-29 10:07:04 0:01:21
24 Pedri Gouws 50 M JBH Afrikaans Hoer Seunsskool HS 2019-03-29 11:01:02 2019-03-29 11:01:56 0:00:54

Attempts by Pedri

Attempt Rider Name Tag No Start time End time Time
1 Pedri Gouws TE233 2019-03-29 11:01:02 2019-03-29 11:01:56 0:00:54
26 IVAN VISSER 24 M JBH Afrikaans Hoer Seunsskool HS 2019-03-29 10:59:35 2019-03-29 11:00:31 0:00:56

Attempts by IVAN

Attempt Rider Name Tag No Start time End time Time
1 IVAN VISSER TF831 2019-03-29 10:59:35 2019-03-29 11:00:31 0:00:56
26 Zegert Nieuwoudt 19 M JM Secunda HS 2019-03-29 11:02:25 2019-03-29 11:03:21 0:00:56

Attempts by Zegert

Attempt Rider Name Tag No Start time End time Time
1 Zegert Nieuwoudt TF935 2019-03-29 11:02:25 2019-03-29 11:03:21 0:00:56
2 Zegert Nieuwoudt TF935 2019-03-29 11:16:50 2019-03-29 11:17:52 0:01:02
26 Rune du Plessis 4 F YW16 Overkruin HS 2019-03-29 11:07:51 2019-03-29 11:08:47 0:00:56

Attempts by Rune

Attempt Rider Name Tag No Start time End time Time
1 Rune du Plessis TA418 2019-03-29 11:07:51 2019-03-29 11:08:47 0:00:56
26 Hanno van der Merwe 31 M JBH Witteberg HS 2019-03-29 11:06:04 2019-03-29 11:07:00 0:00:56

Attempts by Hanno

Attempt Rider Name Tag No Start time End time Time
1 Hanno van der Merwe TE782 2019-03-29 11:06:04 2019-03-29 11:07:00 0:00:56
30 Joshua Toms 22 M YM15 Helpmekaar Kollege HS 2019-03-29 11:18:41 2019-03-29 11:19:38 0:00:57

Attempts by Joshua

Attempt Rider Name Tag No Start time End time Time
2 Joshua Toms TD061 2019-03-29 11:18:41 2019-03-29 11:19:38 0:00:57
1 Joshua Toms TD061 2019-03-29 09:35:03 2019-03-29 09:42:21 0:07:18
30 Sandile Mnxqebisa 70 M Soweto HS 2019-03-29 11:13:48 2019-03-29 11:14:45 0:00:57

Attempts by Sandile

Attempt Rider Name Tag No Start time End time Time
1 Sandile Mnxqebisa TB203 2019-03-29 11:13:48 2019-03-29 11:14:45 0:00:57
32 Johan Raath 27 M YM15 Kempton Park HS 2019-03-29 11:15:34 2019-03-29 11:16:32 0:00:58

Attempts by Johan

Attempt Rider Name Tag No Start time End time Time
1 Johan Raath TG229 2019-03-29 11:15:34 2019-03-29 11:16:32 0:00:58
33 Dalton Jordaan 10 M YM16 Wagpos HS 2019-03-29 11:11:07 2019-03-29 11:12:06 0:00:59

Attempts by Dalton

Attempt Rider Name Tag No Start time End time Time
1 Dalton Jordaan TG019 2019-03-29 11:11:07 2019-03-29 11:12:06 0:00:59
34 Kade Barnes 17 M YM15 Midstream College HS 2019-03-29 12:29:44 2019-03-29 12:30:44 0:01:00

Attempts by Kade

Attempt Rider Name Tag No Start time End time Time
1 Kade Barnes TE106 2019-03-29 12:29:44 2019-03-29 12:30:44 0:01:00
35 Aiden Angus 12 M YM16 Helpmekaar Kollege HS 2019-03-29 12:01:15 2019-03-29 12:02:18 0:01:03

Attempts by Aiden

Attempt Rider Name Tag No Start time End time Time
2 Aiden Angus TD485 2019-03-29 12:01:15 2019-03-29 12:02:18 0:01:03
1 Aiden Angus TD485 2019-03-29 09:34:53 2019-03-29 10:07:46 0:32:53
36 Clinton . 99 M #SpurFest Crew 2019-03-29 12:31:58 2019-03-29 12:33:02 0:01:04

Attempts by Clinton

Attempt Rider Name Tag No Start time End time Time
1 Clinton . AN464 2019-03-29 12:31:58 2019-03-29 12:33:02 0:01:04
36 TJ Mokebe 63 M YM16 Mamelodi HS 2019-03-29 12:28:33 2019-03-29 12:29:37 0:01:04

Attempts by TJ

Attempt Rider Name Tag No Start time End time Time
1 TJ Mokebe TG607 2019-03-29 12:28:33 2019-03-29 12:29:37 0:01:04
36 Ethan Hayes 8 M JM Helpmekaar Kollege HS 2019-03-29 12:02:12 2019-03-29 12:03:16 0:01:04

Attempts by Ethan

Attempt Rider Name Tag No Start time End time Time
1 Ethan Hayes TG939 2019-03-29 12:02:12 2019-03-29 12:03:16 0:01:04
39 Jannes Koekemoer 107 M JBP Parys PS 2019-03-29 10:37:25 2019-03-29 10:38:31 0:01:06

Attempts by Jannes

Attempt Rider Name Tag No Start time End time Time
2 Jannes Koekemoer TF382 2019-03-29 10:37:25 2019-03-29 10:38:31 0:01:06
1 Jannes Koekemoer TF382 2019-03-29 09:37:48 2019-03-29 09:40:26 0:02:38
40 Noah Odendaal 108 M JBP Constantiapark PS 2019-03-29 10:37:37 2019-03-29 10:38:44 0:01:07

Attempts by Noah

Attempt Rider Name Tag No Start time End time Time
2 Noah Odendaal TG207 2019-03-29 10:37:37 2019-03-29 10:38:44 0:01:07
1 Noah Odendaal TG207 2019-03-29 09:37:53 2019-03-29 09:40:25 0:02:32
41 Ilandrie Du Plessis 105 F SG Zastron PS 2019-03-29 12:13:57 2019-03-29 12:15:05 0:01:08

Attempts by Ilandrie

Attempt Rider Name Tag No Start time End time Time
1 Ilandrie Du Plessis TA706 2019-03-29 12:13:57 2019-03-29 12:15:05 0:01:08
42 Joshua Harding 113 M SB Rynfield PS 2019-03-29 09:49:29 2019-03-29 09:50:38 0:01:09

Attempts by Joshua

Attempt Rider Name Tag No Start time End time Time
2 Joshua Harding TD604 2019-03-29 09:49:29 2019-03-29 09:50:38 0:01:09
1 Joshua Harding TD604 2019-03-29 09:42:18 2019-03-29 09:43:36 0:01:18
42 Nqaba Ntshangase 74 M Soweto HS 2019-03-29 11:13:18 2019-03-29 11:14:27 0:01:09

Attempts by Nqaba

Attempt Rider Name Tag No Start time End time Time
1 Nqaba Ntshangase TE706 2019-03-29 11:13:18 2019-03-29 11:14:27 0:01:09
44 AD KOTZE 34 M JM Afrikaans Hoer Seunsskool HS 2019-03-29 12:13:50 2019-03-29 12:15:01 0:01:11

Attempts by AD

Attempt Rider Name Tag No Start time End time Time
1 AD KOTZE TG055 2019-03-29 12:13:50 2019-03-29 12:15:01 0:01:11
45 Tarina Naudé 6 F YW15 Helpmekaar Kollege HS 2019-03-29 11:20:02 2019-03-29 11:21:15 0:01:13

Attempts by Tarina

Attempt Rider Name Tag No Start time End time Time
1 Tarina Naudé TG210 2019-03-29 11:20:02 2019-03-29 11:21:15 0:01:13
46 Nicholas van der Merwe 111 M SB Midstream Ridge PS 2019-03-29 09:41:01 2019-03-29 09:42:18 0:01:17

Attempts by Nicholas

Attempt Rider Name Tag No Start time End time Time
1 Nicholas van der Merwe TD646 2019-03-29 09:41:01 2019-03-29 09:42:18 0:01:17
46 Kwanele Sikhakhane 77 M Soweto HS 2019-03-29 12:26:35 2019-03-29 12:27:52 0:01:17

Attempts by Kwanele

Attempt Rider Name Tag No Start time End time Time
2 Kwanele Sikhakhane TD918 2019-03-29 12:26:35 2019-03-29 12:27:52 0:01:17
1 Kwanele Sikhakhane TD918 2019-03-29 11:06:59 2019-03-29 11:09:08 0:02:09
48 Kopano Mashwane 69 M Soweto HS 2019-03-29 12:30:51 2019-03-29 12:32:10 0:01:19

Attempts by Kopano

Attempt Rider Name Tag No Start time End time Time
1 Kopano Mashwane TB056 2019-03-29 12:30:51 2019-03-29 12:32:10 0:01:19
49 Kiera Frances Bowker 101 F SG Robertson PS 2019-03-29 10:19:48 2019-03-29 10:21:11 0:01:23

Attempts by Kiera Frances

Attempt Rider Name Tag No Start time End time Time
1 Kiera Frances Bowker TD991 2019-03-29 10:19:48 2019-03-29 10:21:11 0:01:23
50 Mzwendi Mbewu 67 M Soweto HS 2019-03-29 11:05:19 2019-03-29 11:06:44 0:01:25

Attempts by Mzwendi

Attempt Rider Name Tag No Start time End time Time
1 Mzwendi Mbewu TC542 2019-03-29 11:05:19 2019-03-29 11:06:44 0:01:25
50 Ryan Mdofu 72 M Soweto HS 2019-03-29 11:14:52 2019-03-29 11:16:17 0:01:25

Attempts by Ryan

Attempt Rider Name Tag No Start time End time Time
1 Ryan Mdofu TG091 2019-03-29 11:14:52 2019-03-29 11:16:17 0:01:25
52 Courtney Eden Bowker 100 F JGP Robertson PS 2019-03-29 10:19:44 2019-03-29 10:21:10 0:01:26

Attempts by Courtney Eden

Attempt Rider Name Tag No Start time End time Time
1 Courtney Eden Bowker TA784 2019-03-29 10:19:44 2019-03-29 10:21:10 0:01:26
53 Kelebongile Makabel 62 M Mamelodi HS 2019-03-29 13:25:51 2019-03-29 13:27:23 0:01:32

Attempts by Kelebongile

Attempt Rider Name Tag No Start time End time Time
2 Kelebongile Makabel TG990 2019-03-29 13:25:51 2019-03-29 13:27:23 0:01:32
1 Kelebongile Makabel TG990 2019-03-29 12:51:52 2019-03-29 12:53:57 0:02:05
54 Calem Angus 13 M JBH Helpmekaar Kollege HS 2019-03-29 12:16:04 2019-03-29 12:17:41 0:01:37

Attempts by Calem

Attempt Rider Name Tag No Start time End time Time
1 Calem Angus TE631 2019-03-29 12:16:04 2019-03-29 12:17:41 0:01:37
55 Janro Du Plessis 106 M NB Zastron PS 2019-03-29 12:14:03 2019-03-29 12:15:41 0:01:38

Attempts by Janro

Attempt Rider Name Tag No Start time End time Time
1 Janro Du Plessis TD605 2019-03-29 12:14:03 2019-03-29 12:15:41 0:01:38
56 Kayla Hodgman 3 F YW15 Oos Moot HS 2019-03-29 11:03:50 2019-03-29 11:05:38 0:01:48

Attempts by Kayla

Attempt Rider Name Tag No Start time End time Time
1 Kayla Hodgman TG110 2019-03-29 11:03:50 2019-03-29 11:05:38 0:01:48
57 Andile Zulu 78 M St Andrew's Girls 2019-03-29 11:04:43 2019-03-29 11:06:37 0:01:54

Attempts by Andile

Attempt Rider Name Tag No Start time End time Time
1 Andile Zulu TG077 2019-03-29 11:04:43 2019-03-29 11:06:37 0:01:54
2 Andile Zulu TG077 2019-03-29 12:26:39 2019-03-29 12:29:22 0:02:43
58 Ruben Drotschie 38 M YM15 Helpmekaar Kollege HS 2019-03-29 09:38:46 2019-03-29 09:40:49 0:02:03

Attempts by Ruben

Attempt Rider Name Tag No Start time End time Time
1 Ruben Drotschie TF819 2019-03-29 09:38:46 2019-03-29 09:40:49 0:02:03
59 Tertius van der Walt 104 M NB Van Riebeeckpark PS 2019-03-29 12:19:00 2019-03-29 12:21:13 0:02:13

Attempts by Tertius

Attempt Rider Name Tag No Start time End time Time
1 Tertius van der Walt TE852 2019-03-29 12:19:00 2019-03-29 12:21:13 0:02:13
60 Marcus Maree 32 M JM Fichardtpark HS 2019-03-29 09:38:10 2019-03-29 09:40:26 0:02:16

Attempts by Marcus

Attempt Rider Name Tag No Start time End time Time
1 Marcus Maree TF508 2019-03-29 09:38:10 2019-03-29 09:40:26 0:02:16
2 Marcus Maree TF508 2019-03-29 10:35:02 2019-03-29 12:23:10 1:48:08
61 Brennon Pietersen 110 M SB Midstream Ridge PS 2019-03-29 12:08:08 2019-03-29 12:10:26 0:02:18

Attempts by Brennon

Attempt Rider Name Tag No Start time End time Time
1 Brennon Pietersen TD764 2019-03-29 12:08:08 2019-03-29 12:10:26 0:02:18
62 Mwazkhe Radebe 71 M Soweto HS 2019-03-29 11:14:23 2019-03-29 11:16:54 0:02:31

Attempts by Mwazkhe

Attempt Rider Name Tag No Start time End time Time
1 Mwazkhe Radebe TD885 2019-03-29 11:14:23 2019-03-29 11:16:54 0:02:31
63 Erika van der Walt 21 F JGH Helpmekaar Kollege HS 2019-03-29 12:18:48 2019-03-29 12:21:33 0:02:45

Attempts by Erika

Attempt Rider Name Tag No Start time End time Time
1 Erika van der Walt TC706 2019-03-29 12:18:48 2019-03-29 12:21:33 0:02:45
64 Christopher Heyl 51 M YM15 Helpmekaar Kollege HS 2019-03-29 09:39:51 2019-03-29 09:42:39 0:02:48

Attempts by Christopher

Attempt Rider Name Tag No Start time End time Time
1 Christopher Heyl TB977 2019-03-29 09:39:51 2019-03-29 09:42:39 0:02:48
65 Cameron le Roux 102 M NB Midstream Ridge PS 2019-03-29 12:07:56 2019-03-29 12:10:50 0:02:54

Attempts by Cameron

Attempt Rider Name Tag No Start time End time Time
1 Cameron le Roux TE433 2019-03-29 12:07:56 2019-03-29 12:10:50 0:02:54
66 Queshailon Karelse 53 M YM16 Oosrand HS 2019-03-29 12:57:31 2019-03-29 13:01:46 0:04:15

Attempts by Queshailon

Attempt Rider Name Tag No Start time End time Time
1 Queshailon Karelse TA124 2019-03-29 12:57:31 2019-03-29 13:01:46 0:04:15
67 Lushada Scholtz 56 F JGH Oosrand HS 2019-03-29 12:58:21 2019-03-29 13:03:02 0:04:41

Attempts by Lushada

Attempt Rider Name Tag No Start time End time Time
1 Lushada Scholtz TD452 2019-03-29 12:58:21 2019-03-29 13:03:02 0:04:41
68 Navan Johnson 55 M JBH Oosrand HS 2019-03-29 12:57:01 2019-03-29 13:01:49 0:04:48

Attempts by Navan

Attempt Rider Name Tag No Start time End time Time
1 Navan Johnson TC075 2019-03-29 12:57:01 2019-03-29 13:01:49 0:04:48
69 Lesedi Matsimela 54 M JBH Oosrand HS 2019-03-29 12:57:57 2019-03-29 13:03:02 0:05:05

Attempts by Lesedi

Attempt Rider Name Tag No Start time End time Time
1 Lesedi Matsimela TG039 2019-03-29 12:57:57 2019-03-29 13:03:02 0:05:05
70 Donnay Van Wyk 58 F JGH Oosrand HS 2019-03-29 12:57:36 2019-03-29 13:02:56 0:05:20

Attempts by Donnay

Attempt Rider Name Tag No Start time End time Time
1 Donnay Van Wyk TE593 2019-03-29 12:57:36 2019-03-29 13:02:56 0:05:20
71 Rene Parker 60 F YW16 Oosrand HS 2019-03-29 12:57:13 2019-03-29 13:02:48 0:05:35

Attempts by Rene

Attempt Rider Name Tag No Start time End time Time
1 Rene Parker TD698 2019-03-29 12:57:13 2019-03-29 13:02:48 0:05:35
72 Mandy Botha 59 F JW Oosrand HS 2019-03-29 13:00:16 2019-03-29 13:07:17 0:07:01

Attempts by Mandy

Attempt Rider Name Tag No Start time End time Time
1 Mandy Botha TE826 2019-03-29 13:00:16 2019-03-29 13:07:17 0:07:01
73 Ronnevis Losper 57 F JW Oosrand HS 2019-03-29 13:00:09 2019-03-29 13:08:36 0:08:27

Attempts by Ronnevis

Attempt Rider Name Tag No Start time End time Time
1 Ronnevis Losper TG323 2019-03-29 13:00:09 2019-03-29 13:08:36 0:08:27
74 Fourie Roux 39 M JM Afrikaans Hoer Seunsskool HS 2019-03-29 11:00:29 2019-03-29 12:30:59 1:30:30

Attempts by Fourie

Attempt Rider Name Tag No Start time End time Time
1 Fourie Roux TD301 2019-03-29 11:00:29 2019-03-29 12:30:59 1:30:30
75 Wian Heydenrych 48 M YM15 Helpmekaar Kollege HS 2019-03-29 09:35:07 2019-03-29 11:19:00 1:43:53

Attempts by Wian

Attempt Rider Name Tag No Start time End time Time
1 Wian Heydenrych TF756 2019-03-29 09:35:07 2019-03-29 11:19:00 1:43:53
76 Anneke van der Walt 20 F YW16 Helpmekaar Kollege HS 2019-03-29 09:35:46 2019-03-29 11:20:11 1:44:25

Attempts by Anneke

Attempt Rider Name Tag No Start time End time Time
1 Anneke van der Walt TG759 2019-03-29 09:35:46 2019-03-29 11:20:11 1:44:25
77 NICO KLEYNHANS 9 M YM16 Afrikaans Hoer Seunsskool HS 2019-03-29 09:36:18 2019-03-29 12:25:22 2:49:04

Attempts by NICO

Attempt Rider Name Tag No Start time End time Time
1 NICO KLEYNHANS TD041 2019-03-29 09:36:18 2019-03-29 12:25:22 2:49:04
78 Zach Visser 109 M SB Pretoria Oos PS 2019-03-29 09:35:29 2019-03-29 12:33:30 2:58:01

Attempts by Zach

Attempt Rider Name Tag No Start time End time Time
1 Zach Visser TB491 2019-03-29 09:35:29 2019-03-29 12:33:30 2:58:01
Name RaceNo Gender Category School Start Time Time Finished Overall Time
1 Oliver Munnik 573 M #SpurFest Crew 2019-03-29 12:47:16 2019-03-29 12:48:24 0:01:08

Attempts by Oliver

Attempt Rider Name Tag No Start time End time Time
1 Oliver Munnik TE428 2019-03-29 12:47:16 2019-03-29 12:48:24 0:01:08
2 Dirk Van Schalkwyk 578 M #SpurFest Crew 2019-03-29 13:08:38 2019-03-29 13:09:49 0:01:11

Attempts by Dirk

Attempt Rider Name Tag No Start time End time Time
1 Dirk Van Schalkwyk TD837 2019-03-29 13:08:38 2019-03-29 13:09:49 0:01:11
3 PIETER-JAN PRETORIUS 37 M JM Afrikaans Hoer Seunsskool HS 2019-03-29 12:59:58 2019-03-29 13:01:10 0:01:12

Attempts by PIETER-JAN

Attempt Rider Name Tag No Start time End time Time
3 PIETER-JAN PRETORIUS TG484 2019-03-29 12:59:58 2019-03-29 13:01:10 0:01:12
2 PIETER-JAN PRETORIUS TG484 2019-03-29 12:54:15 2019-03-29 12:55:33 0:01:18
1 PIETER-JAN PRETORIUS TG484 2019-03-29 12:15:41 2019-03-29 12:25:23 0:09:42
4 GERNO STRYDOM 42 M YM15 Afrikaans Hoer Seunsskool HS 2019-03-29 11:35:33 2019-03-29 11:36:49 0:01:16

Attempts by GERNO

Attempt Rider Name Tag No Start time End time Time
1 GERNO STRYDOM TE978 2019-03-29 11:35:33 2019-03-29 11:36:49 0:01:16
5 Aaron Pietersen 26 M YM15 Midstream College HS 2019-03-29 12:38:30 2019-03-29 12:39:48 0:01:18

Attempts by Aaron

Attempt Rider Name Tag No Start time End time Time
1 Aaron Pietersen TA526 2019-03-29 12:38:30 2019-03-29 12:39:48 0:01:18
6 Tlotlo Selala 64 M JM Mamelodi HS 2019-03-29 12:49:49 2019-03-29 12:51:08 0:01:19

Attempts by Tlotlo

Attempt Rider Name Tag No Start time End time Time
1 Tlotlo Selala TF526 2019-03-29 12:49:49 2019-03-29 12:51:08 0:01:19
6 Marcus Maree 32 M JM Fichardtpark HS 2019-03-29 12:37:28 2019-03-29 12:38:47 0:01:19

Attempts by Marcus

Attempt Rider Name Tag No Start time End time Time
1 Marcus Maree TF508 2019-03-29 12:37:28 2019-03-29 12:38:47 0:01:19
8 DEHAN SMITH 40 M JM Afrikaans Hoer Seunsskool HS 2019-03-29 12:17:51 2019-03-29 12:19:12 0:01:21

Attempts by DEHAN

Attempt Rider Name Tag No Start time End time Time
1 DEHAN SMITH TG078 2019-03-29 12:17:51 2019-03-29 12:19:12 0:01:21
9 CARL WILCOCKS 46 M YM16 Afrikaans Hoer Seunsskool HS 2019-03-29 12:36:36 2019-03-29 12:37:58 0:01:22

Attempts by CARL

Attempt Rider Name Tag No Start time End time Time
2 CARL WILCOCKS TD283 2019-03-29 12:36:36 2019-03-29 12:37:58 0:01:22
1 CARL WILCOCKS TD283 2019-03-29 12:21:09 2019-03-29 12:23:22 0:02:13
9 Dewald Du Plessis 14 M YM15 Noordheuwel HS 2019-03-29 11:24:34 2019-03-29 11:25:56 0:01:22

Attempts by Dewald

Attempt Rider Name Tag No Start time End time Time
1 Dewald Du Plessis TB726 2019-03-29 11:24:34 2019-03-29 11:25:56 0:01:22
11 ROELOF OELOFSE 49 M YM15 Goudveld HS 2019-03-29 11:23:28 2019-03-29 11:24:51 0:01:23

Attempts by ROELOF

Attempt Rider Name Tag No Start time End time Time
1 ROELOF OELOFSE TF317 2019-03-29 11:23:28 2019-03-29 11:24:51 0:01:23
12 Luhan Serfontein 25 M YM15 Grey College HS 2019-03-29 11:24:48 2019-03-29 11:26:12 0:01:24

Attempts by Luhan

Attempt Rider Name Tag No Start time End time Time
1 Luhan Serfontein TE508 2019-03-29 11:24:48 2019-03-29 11:26:12 0:01:24
13 ALBERT VAN TONDER 43 M JM Afrikaans Hoer Seunsskool HS 2019-03-29 12:20:43 2019-03-29 12:22:08 0:01:25

Attempts by ALBERT

Attempt Rider Name Tag No Start time End time Time
1 ALBERT VAN TONDER TG160 2019-03-29 12:20:43 2019-03-29 12:22:08 0:01:25
14 Armand Booysen 16 M YM15 Noordheuwel HS 2019-03-29 11:24:39 2019-03-29 11:26:06 0:01:27

Attempts by Armand

Attempt Rider Name Tag No Start time End time Time
1 Armand Booysen TG291 2019-03-29 11:24:39 2019-03-29 11:26:06 0:01:27
15 Werner Vos 11 M JM Wagpos HS 2019-03-29 11:26:44 2019-03-29 11:28:12 0:01:28

Attempts by Werner

Attempt Rider Name Tag No Start time End time Time
1 Werner Vos TG725 2019-03-29 11:26:44 2019-03-29 11:28:12 0:01:28
16 Kian kruger 1 M YM16 Overkruin HS 2019-03-29 11:25:58 2019-03-29 11:27:29 0:01:31

Attempts by Kian

Attempt Rider Name Tag No Start time End time Time
1 Kian kruger TF957 2019-03-29 11:25:58 2019-03-29 11:27:29 0:01:31
16 Johan Raath 27 M YM15 Kempton Park HS 2019-03-29 11:27:26 2019-03-29 11:28:57 0:01:31

Attempts by Johan

Attempt Rider Name Tag No Start time End time Time
1 Johan Raath TG229 2019-03-29 11:27:26 2019-03-29 11:28:57 0:01:31
18 Kevin Daniel Scholtz 5 M JM John Vorster HTS 2019-03-29 11:25:41 2019-03-29 11:27:14 0:01:33

Attempts by Kevin Daniel

Attempt Rider Name Tag No Start time End time Time
1 Kevin Daniel Scholtz TG496 2019-03-29 11:25:41 2019-03-29 11:27:14 0:01:33
18 Meurant Botha 1000 M #SpurFest Crew 2019-03-29 11:43:10 2019-03-29 11:44:43 0:01:33

Attempts by Meurant

Attempt Rider Name Tag No Start time End time Time
1 Meurant Botha AM441 2019-03-29 11:43:10 2019-03-29 11:44:43 0:01:33
18 WERNU SNYMAN 41 M YM16 Afrikaans Hoer Seunsskool HS 2019-03-29 12:20:16 2019-03-29 12:21:49 0:01:33

Attempts by WERNU

Attempt Rider Name Tag No Start time End time Time
1 WERNU SNYMAN TC630 2019-03-29 12:20:16 2019-03-29 12:21:49 0:01:33
21 Fourie Roux 39 M JM Afrikaans Hoer Seunsskool HS 2019-03-29 12:19:54 2019-03-29 12:21:28 0:01:34

Attempts by Fourie

Attempt Rider Name Tag No Start time End time Time
1 Fourie Roux TD301 2019-03-29 12:19:54 2019-03-29 12:21:28 0:01:34
22 Edrich Scholtz 2 M JM John Vorster HTS 2019-03-29 11:26:29 2019-03-29 11:28:07 0:01:38

Attempts by Edrich

Attempt Rider Name Tag No Start time End time Time
1 Edrich Scholtz TC965 2019-03-29 11:26:29 2019-03-29 11:28:07 0:01:38
23 IVAN VISSER 24 M JBH Afrikaans Hoer Seunsskool HS 2019-03-29 12:17:14 2019-03-29 12:18:55 0:01:41

Attempts by IVAN

Attempt Rider Name Tag No Start time End time Time
1 IVAN VISSER TF831 2019-03-29 12:17:14 2019-03-29 12:18:55 0:01:41
2 IVAN VISSER TF831 2019-03-29 12:36:07 2019-03-29 12:37:48 0:01:41
24 ZANE VAN NIEKERK 23 M JM Fichardtpark HS 2019-03-29 12:38:11 2019-03-29 12:39:53 0:01:42

Attempts by ZANE

Attempt Rider Name Tag No Start time End time Time
1 ZANE VAN NIEKERK TF363 2019-03-29 12:38:11 2019-03-29 12:39:53 0:01:42
2 ZANE VAN NIEKERK TF363 2019-03-29 12:43:33 2019-03-29 12:45:34 0:02:01
25 Ruan Riekert 28 M YM15 Kempton Park HS 2019-03-29 11:45:29 2019-03-29 11:47:12 0:01:43

Attempts by Ruan

Attempt Rider Name Tag No Start time End time Time
1 Ruan Riekert TF917 2019-03-29 11:45:29 2019-03-29 11:47:12 0:01:43
26 Rune du Plessis 4 F YW16 Overkruin HS 2019-03-29 11:19:01 2019-03-29 11:20:45 0:01:44

Attempts by Rune

Attempt Rider Name Tag No Start time End time Time
1 Rune du Plessis TA418 2019-03-29 11:19:01 2019-03-29 11:20:45 0:01:44
27 Zach Visser 109 M SB Pretoria Oos PS 2019-03-29 12:18:12 2019-03-29 12:19:57 0:01:45

Attempts by Zach

Attempt Rider Name Tag No Start time End time Time
1 Zach Visser TB491 2019-03-29 12:18:12 2019-03-29 12:19:57 0:01:45
28 Hanno van der Merwe 31 M JBH Witteberg HS 2019-03-29 11:24:52 2019-03-29 11:26:39 0:01:47

Attempts by Hanno

Attempt Rider Name Tag No Start time End time Time
1 Hanno van der Merwe TE782 2019-03-29 11:24:52 2019-03-29 11:26:39 0:01:47
29 Zegert Nieuwoudt 19 M JM Secunda HS 2019-03-29 11:26:14 2019-03-29 11:28:05 0:01:51

Attempts by Zegert

Attempt Rider Name Tag No Start time End time Time
1 Zegert Nieuwoudt TF935 2019-03-29 11:26:14 2019-03-29 11:28:05 0:01:51
30 Sandile Mnxqebisa 70 M Soweto HS 2019-03-29 11:40:30 2019-03-29 11:42:24 0:01:54

Attempts by Sandile

Attempt Rider Name Tag No Start time End time Time
2 Sandile Mnxqebisa TB203 2019-03-29 11:40:30 2019-03-29 11:42:24 0:01:54
1 Sandile Mnxqebisa TB203 2019-03-29 11:28:20 2019-03-29 11:30:20 0:02:00
31 TJ Mokebe 63 M YM16 Mamelodi HS 2019-03-29 12:54:44 2019-03-29 12:56:42 0:01:58

Attempts by TJ

Attempt Rider Name Tag No Start time End time Time
1 TJ Mokebe TG607 2019-03-29 12:54:44 2019-03-29 12:56:42 0:01:58
32 Nqaba Ntshangase 74 M Soweto HS 2019-03-29 11:40:44 2019-03-29 11:42:49 0:02:05

Attempts by Nqaba

Attempt Rider Name Tag No Start time End time Time
2 Nqaba Ntshangase TE706 2019-03-29 11:40:44 2019-03-29 11:42:49 0:02:05
1 Nqaba Ntshangase TE706 2019-03-29 11:27:56 2019-03-29 11:30:43 0:02:47
33 Nicholas van der Merwe 111 M SB Midstream Ridge PS 2019-03-29 12:31:22 2019-03-29 12:33:32 0:02:10

Attempts by Nicholas

Attempt Rider Name Tag No Start time End time Time
1 Nicholas van der Merwe TD646 2019-03-29 12:31:22 2019-03-29 12:33:32 0:02:10
34 Ilandrie Du Plessis 105 F SG Zastron PS 2019-03-29 12:25:34 2019-03-29 12:27:59 0:02:25

Attempts by Ilandrie

Attempt Rider Name Tag No Start time End time Time
1 Ilandrie Du Plessis TA706 2019-03-29 12:25:34 2019-03-29 12:27:59 0:02:25
35 Ryan Mdofu 72 M Soweto HS 2019-03-29 11:40:40 2019-03-29 11:43:16 0:02:36

Attempts by Ryan

Attempt Rider Name Tag No Start time End time Time
2 Ryan Mdofu TG091 2019-03-29 11:40:40 2019-03-29 11:43:16 0:02:36
1 Ryan Mdofu TG091 2019-03-29 11:27:38 2019-03-29 11:31:07 0:03:29
36 Kayla Hodgman 3 F YW15 Oos Moot HS 2019-03-29 11:19:19 2019-03-29 11:22:05 0:02:46

Attempts by Kayla

Attempt Rider Name Tag No Start time End time Time
1 Kayla Hodgman TG110 2019-03-29 11:19:19 2019-03-29 11:22:05 0:02:46
37 Janro Du Plessis 106 M NB Zastron PS 2019-03-29 12:26:17 2019-03-29 12:29:12 0:02:55

Attempts by Janro

Attempt Rider Name Tag No Start time End time Time
1 Janro Du Plessis TD605 2019-03-29 12:26:17 2019-03-29 12:29:12 0:02:55
38 Kelebongile Makabel 62 M Mamelodi HS 2019-03-29 12:31:54 2019-03-29 12:34:59 0:03:05

Attempts by Kelebongile

Attempt Rider Name Tag No Start time End time Time
1 Kelebongile Makabel TG990 2019-03-29 12:31:54 2019-03-29 12:34:59 0:03:05
39 Daniel le Roux 103 M SB Midstream Ridge PS 2019-03-29 12:21:30 2019-03-29 12:24:57 0:03:27

Attempts by Daniel

Attempt Rider Name Tag No Start time End time Time
1 Daniel le Roux TC355 2019-03-29 12:21:30 2019-03-29 12:24:57 0:03:27
40 Kopano Mashwane 69 M Soweto HS 2019-03-29 12:50:23 2019-03-29 12:53:52 0:03:29

Attempts by Kopano

Attempt Rider Name Tag No Start time End time Time
1 Kopano Mashwane TB056 2019-03-29 12:50:23 2019-03-29 12:53:52 0:03:29
41 Brennon Pietersen 110 M SB Midstream Ridge PS 2019-03-29 12:21:36 2019-03-29 12:25:45 0:04:09

Attempts by Brennon

Attempt Rider Name Tag No Start time End time Time
1 Brennon Pietersen TD764 2019-03-29 12:21:36 2019-03-29 12:25:45 0:04:09
42 Blessing Mtshweni 65 M YM16 Mamelodi HS 2019-03-29 12:48:31 2019-03-29 12:52:53 0:04:22

Attempts by Blessing

Attempt Rider Name Tag No Start time End time Time
1 Blessing Mtshweni TG159 2019-03-29 12:48:31 2019-03-29 12:52:53 0:04:22
43 Cameron le Roux 102 M NB Midstream Ridge PS 2019-03-29 12:21:26 2019-03-29 12:25:50 0:04:24

Attempts by Cameron

Attempt Rider Name Tag No Start time End time Time
1 Cameron le Roux TE433 2019-03-29 12:21:26 2019-03-29 12:25:50 0:04:24
44 Neo Tladik 68 M Soweto HS 2019-03-29 13:08:08 2019-03-29 13:13:39 0:05:31

Attempts by Neo

Attempt Rider Name Tag No Start time End time Time
1 Neo Tladik TA725 2019-03-29 13:08:08 2019-03-29 13:13:39 0:05:31
45 HENNO HARDING 33 M YM15 Afrikaans Hoer Seunsskool HS 2019-03-29 12:17:40 2019-03-29 12:23:38 0:05:58

Attempts by HENNO

Attempt Rider Name Tag No Start time End time Time
1 HENNO HARDING TD476 2019-03-29 12:17:40 2019-03-29 12:23:38 0:05:58
46 NICO KLEYNHANS 9 M YM16 Afrikaans Hoer Seunsskool HS 2019-03-29 10:18:42 2019-03-29 12:15:56 1:57:14

Attempts by NICO

Attempt Rider Name Tag No Start time End time Time
1 NICO KLEYNHANS TD041 2019-03-29 10:18:42 2019-03-29 12:15:56 1:57:14
Name RaceNo Gender Category School Stage 1
Time (Rank)
Stage 2
Time (Rank)
Overall Time
(H:m:s) (Rank)
1 Dirk Van Schalkwyk 578 M #SpurFest Crew 0:00:38 (1) 0:01:11 (2) 0:01:49 (1)
2 Tlotlo Selala 64 M JM Mamelodi HS 0:00:50 (15) 0:01:19 (6) 0:02:09 (2)
3 Meurant Botha 1000 M #SpurFest Crew 0:00:44 (7) 0:01:33 (18) 0:02:17 (3)
4 Sandile Mnxqebisa 70 M Soweto HS 0:00:57 (30) 0:01:54 (30) 0:02:51 (4)
5 TJ Mokebe 63 M YM16 Mamelodi HS 0:01:04 (36) 0:01:58 (31) 0:03:02 (5)
6 Nqaba Ntshangase 74 M Soweto HS 0:01:09 (42) 0:02:05 (32) 0:03:14 (6)
7 Ryan Mdofu 72 M Soweto HS 0:01:25 (50) 0:02:36 (35) 0:04:01 (7)
8 Kelebongile Makabel 62 M Mamelodi HS 0:01:32 (53) 0:03:05 (38) 0:04:37 (8)
9 Kopano Mashwane 69 M Soweto HS 0:01:19 (48) 0:03:29 (40) 0:04:48 (9)
Reabetswe Makofane 66 M Mamelodi HS 0:00:50 (15) ... TBD
Clinton . 99 M #SpurFest Crew 0:01:04 (36) ... TBD
Kwanele Sikhakhane 77 M Soweto HS 0:01:17 (46) ... TBD
Mzwendi Mbewu 67 M Soweto HS 0:01:25 (50) ... TBD
Andile Zulu 78 M St Andrew's Girls 0:01:54 (57) ... TBD
Mwazkhe Radebe 71 M Soweto HS 0:02:31 (62) ... TBD
Queshailon Karelse 53 M YM16 Oosrand HS 0:04:15 (66) ... TBD
Blessing Mtshweni 65 M YM16 Mamelodi HS ... 0:04:22 (42) TBD
Lushada Scholtz 56 F JGH Oosrand HS 0:04:41 (67) ... TBD
Donnay Van Wyk 58 F JGH Oosrand HS 0:05:20 (70) ... TBD
Neo Tladik 68 M Soweto HS ... 0:05:31 (44) TBD
Rene Parker 60 F YW16 Oosrand HS 0:05:35 (71) ... TBD
Mandy Botha 59 F JW Oosrand HS 0:07:01 (72) ... TBD
Ronnevis Losper 57 F JW Oosrand HS 0:08:27 (73) ... TBD
Name RaceNo Gender Category School Stage 1
Time (Rank)
Stage 2
Time (Rank)
Overall Time
(H:m:s) (Rank)
1 Oliver Munnik 573 M #SpurFest Crew 0:00:39 (2) 0:01:08 (1) 0:01:47 (1)
2 PIETER-JAN PRETORIUS 37 M JM Afrikaans Hoer Seunsskool HS 0:00:40 (3) 0:01:12 (3) 0:01:52 (2)
3 DEHAN SMITH 40 M JM Afrikaans Hoer Seunsskool HS 0:00:53 (23) 0:01:21 (8) 0:02:14 (3)
4 ALBERT VAN TONDER 43 M JM Afrikaans Hoer Seunsskool HS 0:00:50 (15) 0:01:25 (13) 0:02:15 (4)
5 Werner Vos 11 M JM Wagpos HS 0:00:50 (15) 0:01:28 (15) 0:02:18 (5)
6 Kevin Daniel Scholtz 5 M JM John Vorster HTS 0:00:46 (11) 0:01:33 (18) 0:02:19 (6)
7 Edrich Scholtz 2 M JM John Vorster HTS 0:00:49 (14) 0:01:38 (22) 0:02:27 (7)
8 Zegert Nieuwoudt 19 M JM Secunda HS 0:00:56 (26) 0:01:51 (29) 0:02:47 (8)
9 Marcus Maree 32 M JM Fichardtpark HS 0:02:16 (60) 0:01:19 (6) 0:03:35 (9)
10 Fourie Roux 39 M JM Afrikaans Hoer Seunsskool HS 1:30:30 (74) 0:01:34 (21) 1:32:04 (10)
Dian Broodryk 7 M JM Helpmekaar Kollege HS 0:00:52 (22) ... TBD
Ethan Hayes 8 M JM Helpmekaar Kollege HS 0:01:04 (36) ... TBD
AD KOTZE 34 M JM Afrikaans Hoer Seunsskool HS 0:01:11 (44) ... TBD
ZANE VAN NIEKERK 23 M JM Fichardtpark HS ... 0:01:42 (24) TBD
Name RaceNo Gender Category School Stage 1
Time (Rank)
Stage 2
Time (Rank)
Overall Time
(H:m:s) (Rank)
1 Rune du Plessis 4 F YW16 Overkruin HS 0:00:56 (26) 0:01:44 (26) 0:02:40 (1)
Anneke van der Walt 20 F YW16 Helpmekaar Kollege HS 1:44:25 (76) ... TBD
Name RaceNo Gender Category School Stage 1
Time (Rank)
Stage 2
Time (Rank)
Overall Time
(H:m:s) (Rank)
1 Kian kruger 1 M YM16 Overkruin HS 0:00:48 (13) 0:01:31 (16) 0:02:19 (1)
2 NICO KLEYNHANS 9 M YM16 Afrikaans Hoer Seunsskool HS 2:49:04 (77) 1:57:14 (46) 4:46:18 (2)
MARK OSLER 36 M YM16 Afrikaans Hoer Seunsskool HS 0:00:45 (8) ... TBD
KARL-HEINZ MIENKE 35 M YM16 Afrikaans Hoer Seunsskool HS 0:00:50 (15) ... TBD
Stefan Venter 29 M YM16 Helpmekaar Kollege HS 0:00:50 (15) ... TBD
Pedri Crause 30 M YM16 Helpmekaar Kollege HS 0:00:54 (24) ... TBD
Dalton Jordaan 10 M YM16 Wagpos HS 0:00:59 (33) ... TBD
Aiden Angus 12 M YM16 Helpmekaar Kollege HS 0:01:03 (35) ... TBD
CARL WILCOCKS 46 M YM16 Afrikaans Hoer Seunsskool HS ... 0:01:22 (9) TBD
WERNU SNYMAN 41 M YM16 Afrikaans Hoer Seunsskool HS ... 0:01:33 (18) TBD
Name RaceNo Gender Category School Stage 1
Time (Rank)
Stage 2
Time (Rank)
Overall Time
(H:m:s) (Rank)
1 Kayla Hodgman 3 F YW15 Oos Moot HS 0:01:48 (56) 0:02:46 (36) 0:04:34 (1)
Tarina Naudé 6 F YW15 Helpmekaar Kollege HS 0:01:13 (45) ... TBD
Name RaceNo Gender Category School Stage 1
Time (Rank)
Stage 2
Time (Rank)
Overall Time
(H:m:s) (Rank)
1 GERNO STRYDOM 42 M YM15 Afrikaans Hoer Seunsskool HS 0:00:42 (4) 0:01:16 (4) 0:01:58 (1)
2 Aaron Pietersen 26 M YM15 Midstream College HS 0:00:43 (5) 0:01:18 (5) 0:02:01 (2)
3 Dewald Du Plessis 14 M YM15 Noordheuwel HS 0:00:43 (5) 0:01:22 (9) 0:02:05 (3)
4 ROELOF OELOFSE 49 M YM15 Goudveld HS 0:00:45 (8) 0:01:23 (11) 0:02:08 (4)
5 Luhan Serfontein 25 M YM15 Grey College HS 0:00:45 (8) 0:01:24 (12) 0:02:09 (5)
6 Armand Booysen 16 M YM15 Noordheuwel HS 0:00:46 (11) 0:01:27 (14) 0:02:13 (6)
7 Johan Raath 27 M YM15 Kempton Park HS 0:00:58 (32) 0:01:31 (16) 0:02:29 (7)
8 HENNO HARDING 33 M YM15 Afrikaans Hoer Seunsskool HS 0:00:51 (21) 0:05:58 (45) 0:06:49 (8)
Joshua Toms 22 M YM15 Helpmekaar Kollege HS 0:00:57 (30) ... TBD
Kade Barnes 17 M YM15 Midstream College HS 0:01:00 (34) ... TBD
Ruan Riekert 28 M YM15 Kempton Park HS ... 0:01:43 (25) TBD
Ruben Drotschie 38 M YM15 Helpmekaar Kollege HS 0:02:03 (58) ... TBD
Christopher Heyl 51 M YM15 Helpmekaar Kollege HS 0:02:48 (64) ... TBD
Wian Heydenrych 48 M YM15 Helpmekaar Kollege HS 1:43:53 (75) ... TBD
Name RaceNo Gender Category School Stage 1
Time (Rank)
Stage 2
Time (Rank)
Overall Time
(H:m:s) (Rank)
Erika van der Walt 21 F JGH Helpmekaar Kollege HS 0:02:45 (63) ... TBD
Name RaceNo Gender Category School Stage 1
Time (Rank)
Stage 2
Time (Rank)
Overall Time
(H:m:s) (Rank)
1 IVAN VISSER 24 M JBH Afrikaans Hoer Seunsskool HS 0:00:56 (26) 0:01:41 (23) 0:02:37 (1)
2 Hanno van der Merwe 31 M JBH Witteberg HS 0:00:56 (26) 0:01:47 (28) 0:02:43 (2)
Pedri Gouws 50 M JBH Afrikaans Hoer Seunsskool HS 0:00:54 (24) ... TBD
Calem Angus 13 M JBH Helpmekaar Kollege HS 0:01:37 (54) ... TBD
Navan Johnson 55 M JBH Oosrand HS 0:04:48 (68) ... TBD
Lesedi Matsimela 54 M JBH Oosrand HS 0:05:05 (69) ... TBD
Name RaceNo Gender Category School Stage 1
Time (Rank)
Stage 2
Time (Rank)
Overall Time
(H:m:s) (Rank)
Courtney Eden Bowker 100 F JGP Robertson PS 0:01:26 (52) ... TBD
Name RaceNo Gender Category School Stage 1
Time (Rank)
Stage 2
Time (Rank)
Overall Time
(H:m:s) (Rank)
Jannes Koekemoer 107 M JBP Parys PS 0:01:06 (39) ... TBD
Noah Odendaal 108 M JBP Constantiapark PS 0:01:07 (40) ... TBD
Name RaceNo Gender Category School Stage 1
Time (Rank)
Stage 2
Time (Rank)
Overall Time
(H:m:s) (Rank)
1 Ilandrie Du Plessis 105 F SG Zastron PS 0:01:08 (41) 0:02:25 (34) 0:03:33 (1)
Kiera Frances Bowker 101 F SG Robertson PS 0:01:23 (49) ... TBD
Name RaceNo Gender Category School Stage 1
Time (Rank)
Stage 2
Time (Rank)
Overall Time
(H:m:s) (Rank)
1 Nicholas van der Merwe 111 M SB Midstream Ridge PS 0:01:17 (46) 0:02:10 (33) 0:03:27 (1)
2 Brennon Pietersen 110 M SB Midstream Ridge PS 0:02:18 (61) 0:04:09 (41) 0:06:27 (2)
3 Zach Visser 109 M SB Pretoria Oos PS 2:58:01 (78) 0:01:45 (27) 2:59:46 (3)
Joshua Harding 113 M SB Rynfield PS 0:01:09 (42) ... TBD
Daniel le Roux 103 M SB Midstream Ridge PS ... 0:03:27 (39) TBD
Name RaceNo Gender Category School Stage 1
Time (Rank)
Stage 2
Time (Rank)
Overall Time
(H:m:s) (Rank)
No Result yet
Name RaceNo Gender Category School Stage 1
Time (Rank)
Stage 2
Time (Rank)
Overall Time
(H:m:s) (Rank)
1 Janro Du Plessis 106 M NB Zastron PS 0:01:38 (55) 0:02:55 (37) 0:04:33 (1)
2 Cameron le Roux 102 M NB Midstream Ridge PS 0:02:54 (65) 0:04:24 (43) 0:07:18 (2)
Tertius van der Walt 104 M NB Van Riebeeckpark PS 0:02:13 (59) ... TBD
Name RaceNo Gender Category School Stage 1
Time (Rank)
Stage 2
Time (Rank)
Overall Time
(H:m:s) (Rank)
No Result yet
Name RaceNo Gender Category School Stage 1
Time (Rank)
Stage 2
Time (Rank)
Overall Time
(H:m:s) (Rank)
No Result yet